createdAt,value
2018-11-28T00:00:05.967Z,20.40
2018-11-28T00:02:34.407Z,19.03
2018-11-28T00:05:02.769Z,19.97
2018-11-28T00:07:31.163Z,20.73
2018-11-28T00:09:59.502Z,20.53
2018-11-28T00:12:28.112Z,19.30
2018-11-28T00:14:56.536Z,19.67
2018-11-28T00:17:24.948Z,19.90
2018-11-28T00:19:53.296Z,21.37
2018-11-28T00:22:21.807Z,21.00
2018-11-28T00:24:50.209Z,20.10
2018-11-28T00:27:18.784Z,19.90
2018-11-28T00:29:47.168Z,19.37
2018-11-28T00:32:15.775Z,20.10
2018-11-28T00:34:44.091Z,19.53
2018-11-28T00:37:13.295Z,20.27
2018-11-28T00:39:42.432Z,20.47
2018-11-28T00:42:10.806Z,20.87
2018-11-28T00:44:39.176Z,21.20
2018-11-28T00:47:07.588Z,21.47
2018-11-28T00:49:35.968Z,21.97
2018-11-28T00:52:04.360Z,20.63
2018-11-28T00:54:32.744Z,20.47
2018-11-28T00:57:01.178Z,20.67
2018-11-28T00:59:29.528Z,20.67
2018-11-28T01:01:58.698Z,22.00
2018-11-28T01:04:27.145Z,21.27
2018-11-28T01:06:55.519Z,21.27
2018-11-28T01:09:24.040Z,21.27
2018-11-28T01:11:52.444Z,21.40
2018-11-28T01:14:20.923Z,20.43
2018-11-28T01:16:49.306Z,20.43
2018-11-28T01:19:17.660Z,20.70
2018-11-28T01:21:46.068Z,21.43
2018-11-28T01:24:14.450Z,20.63
2018-11-28T01:26:42.818Z,21.80
2018-11-28T01:29:11.273Z,21.30
2018-11-28T01:31:39.722Z,21.60
2018-11-28T01:34:08.136Z,22.33
2018-11-28T01:36:36.541Z,23.03
2018-11-28T01:39:04.981Z,25.57
2018-11-28T01:41:33.341Z,24.53
2018-11-28T01:44:01.716Z,22.80
2018-11-28T01:46:30.099Z,23.10
2018-11-28T01:48:58.497Z,22.17
2018-11-28T01:51:26.921Z,22.23
2018-11-28T01:53:55.333Z,22.10
2018-11-28T01:56:23.704Z,22.33
2018-11-28T01:58:52.076Z,22.53
2018-11-28T02:01:20.514Z,21.77
2018-11-28T02:03:48.876Z,22.03
2018-11-28T02:06:17.283Z,21.63
2018-11-28T02:08:45.742Z,22.30
2018-11-28T02:11:14.214Z,22.57
2018-11-28T02:13:42.576Z,20.67
2018-11-28T02:16:11.008Z,20.63
2018-11-28T02:18:39.381Z,21.67
2018-11-28T02:21:07.762Z,22.00
2018-11-28T02:23:36.142Z,22.23
2018-11-28T02:26:04.494Z,21.33
2018-11-28T02:28:32.947Z,22.93
2018-11-28T02:31:02.086Z,21.00
2018-11-28T02:33:30.482Z,22.00
2018-11-28T02:35:58.870Z,22.20
2018-11-28T02:38:27.414Z,20.83
2018-11-28T02:40:56.582Z,22.17
2018-11-28T02:43:24.995Z,21.60
2018-11-28T02:45:53.334Z,22.13
2018-11-28T02:48:22.528Z,21.13
2018-11-28T02:50:51.676Z,19.27
2018-11-28T02:53:20.046Z,21.20
2018-11-28T02:55:48.459Z,20.47
2018-11-28T02:58:16.915Z,20.70
2018-11-28T03:00:45.293Z,20.70
2018-11-28T03:03:13.689Z,20.93
2018-11-28T03:05:42.087Z,20.13
2018-11-28T03:08:10.545Z,20.23
2018-11-28T03:10:38.897Z,19.80
2018-11-28T03:13:07.302Z,19.90
2018-11-28T03:15:35.668Z,20.20
2018-11-28T03:18:04.062Z,19.83
2018-11-28T03:20:32.443Z,20.40
2018-11-28T03:23:00.860Z,19.87
2018-11-28T03:25:30.028Z,20.07
2018-11-28T03:27:58.401Z,20.17
2018-11-28T03:30:26.811Z,18.73
2018-11-28T03:32:55.211Z,20.17
2018-11-28T03:35:24.342Z,19.23
2018-11-28T03:37:52.763Z,18.47
2018-11-28T03:40:21.105Z,19.80
2018-11-28T03:42:49.472Z,19.90
2018-11-28T03:45:17.864Z,20.10
2018-11-28T03:47:46.229Z,20.50
2018-11-28T03:50:14.649Z,20.13
2018-11-28T03:52:43.029Z,20.80
2018-11-28T03:55:11.405Z,19.13
2018-11-28T03:57:39.799Z,21.60
2018-11-28T04:00:08.166Z,20.63
2018-11-28T04:02:36.517Z,21.53
2018-11-28T04:05:04.891Z,20.33
2018-11-28T04:07:33.264Z,22.63
2018-11-28T04:10:01.663Z,21.27
2018-11-28T04:12:30.055Z,21.17
2018-11-28T04:14:58.439Z,20.87
2018-11-28T04:17:26.801Z,21.53
2018-11-28T04:19:55.189Z,20.70
2018-11-28T04:22:23.543Z,20.90
2018-11-28T04:24:51.946Z,20.40
2018-11-28T04:27:20.397Z,20.77
2018-11-28T04:29:48.845Z,21.40
2018-11-28T04:32:17.223Z,21.37
2018-11-28T04:34:46.342Z,20.60
2018-11-28T04:37:14.737Z,19.60
2018-11-28T04:39:43.136Z,20.43
2018-11-28T04:42:11.527Z,20.70
2018-11-28T04:44:39.905Z,20.10
2018-11-28T04:47:08.279Z,20.00
2018-11-28T04:49:36.655Z,21.00
2018-11-28T04:52:05.013Z,21.97
2018-11-28T04:54:33.381Z,21.20
2018-11-28T04:57:01.777Z,20.93
2018-11-28T04:59:30.127Z,22.30
2018-11-28T05:01:58.499Z,22.13
2018-11-28T05:04:26.916Z,22.20
2018-11-28T05:07:13.494Z,21.97
2018-11-28T05:09:42.600Z,24.40
2018-11-28T05:12:10.985Z,23.57
2018-11-28T05:14:39.378Z,24.50
2018-11-28T05:17:07.756Z,22.60
2018-11-28T05:19:36.148Z,23.37
2018-11-28T05:22:04.489Z,24.43
2018-11-28T05:24:32.845Z,23.27
2018-11-28T05:27:01.992Z,25.77
2018-11-28T05:29:30.347Z,25.00
2018-11-28T05:31:58.717Z,24.30
2018-11-28T05:34:27.131Z,25.07
2018-11-28T05:36:55.613Z,24.97
2018-11-28T05:39:23.997Z,24.63
2018-11-28T05:41:57.396Z,24.80
2018-11-28T05:44:25.775Z,28.13
2018-11-28T05:46:54.129Z,25.93
2018-11-28T05:49:22.537Z,25.17
2018-11-28T05:51:50.913Z,25.83
2018-11-28T05:54:20.293Z,24.27
2018-11-28T05:56:47.769Z,24.03
2018-11-28T05:59:16.160Z,26.57
2018-11-28T06:01:44.503Z,25.83
2018-11-28T06:04:13.037Z,25.03
2018-11-28T06:06:41.401Z,25.93
2018-11-28T06:09:09.877Z,27.03
2018-11-28T06:11:38.241Z,26.33
2018-11-28T06:16:55.345Z,33.25
2018-11-28T06:19:23.691Z,26.47
2018-11-28T06:21:52.074Z,25.23
2018-11-28T06:24:20.475Z,26.53
2018-11-28T06:26:48.826Z,23.93
2018-11-28T06:29:17.245Z,25.03
2018-11-28T06:31:45.646Z,24.23
2018-11-28T06:34:14.005Z,22.23
2018-11-28T06:36:42.775Z,24.37
2018-11-28T06:39:11.231Z,24.00
2018-11-28T06:41:39.797Z,24.13
2018-11-28T06:44:08.269Z,22.93
2018-11-28T06:46:36.809Z,24.37
2018-11-28T06:49:05.259Z,24.80
2018-11-28T06:51:33.605Z,26.40
2018-11-28T06:54:02.021Z,26.47
2018-11-28T06:56:30.385Z,25.43
2018-11-28T06:58:58.769Z,27.00
2018-11-28T07:01:27.189Z,25.90
2018-11-28T07:03:55.565Z,26.07
2018-11-28T07:06:23.913Z,26.03
2018-11-28T07:08:52.302Z,25.87
2018-11-28T07:11:20.788Z,25.37
2018-11-28T07:13:49.153Z,25.27
2018-11-28T07:16:17.605Z,25.27
2018-11-28T07:19:04.791Z,25.87
2018-11-28T07:21:33.245Z,24.00
2018-11-28T07:24:01.583Z,22.10
2018-11-28T07:26:30.101Z,25.90
2018-11-28T07:28:58.482Z,26.83
2018-11-28T07:31:27.096Z,26.23
2018-11-28T07:33:55.481Z,24.73
2018-11-28T07:36:25.151Z,25.73
2018-11-28T07:38:54.211Z,24.27
2018-11-28T07:41:21.945Z,23.43
2018-11-28T07:43:51.077Z,23.30
2018-11-28T07:46:19.436Z,23.57
2018-11-28T07:48:47.806Z,24.17
2018-11-28T07:51:16.169Z,23.43
2018-11-28T07:53:44.527Z,24.17
2018-11-28T07:56:12.954Z,24.17
2018-11-28T07:58:42.093Z,22.53
2018-11-28T08:01:10.473Z,22.77
2018-11-28T08:03:38.850Z,23.37
2018-11-28T08:06:07.218Z,23.63
2018-11-28T08:08:35.613Z,21.40
2018-11-28T08:11:03.989Z,23.60
2018-11-28T08:13:32.375Z,22.47
2018-11-28T08:16:00.730Z,22.67
2018-11-28T08:18:29.117Z,22.73
2018-11-28T08:20:57.507Z,23.47
2018-11-28T08:23:25.875Z,23.43
2018-11-28T08:25:54.263Z,23.13
2018-11-28T08:28:22.641Z,23.00
2018-11-28T08:30:50.997Z,23.90
2018-11-28T08:33:19.348Z,24.30
2018-11-28T08:35:47.837Z,24.63
2018-11-28T08:38:16.107Z,21.63
2018-11-28T08:40:44.477Z,24.67
2018-11-28T08:43:12.948Z,25.93
2018-11-28T08:45:41.342Z,24.57
2018-11-28T08:48:09.723Z,24.03
2018-11-28T08:50:38.111Z,24.60
2018-11-28T08:53:07.254Z,23.70
2018-11-28T08:55:35.624Z,23.97
2018-11-28T08:58:03.974Z,23.63
2018-11-28T09:00:33.169Z,25.53
2018-11-28T09:03:01.514Z,24.37
2018-11-28T09:05:29.863Z,24.37
2018-11-28T09:07:58.242Z,24.37
2018-11-28T09:10:26.614Z,23.93
2018-11-28T09:12:55.063Z,25.20
2018-11-28T09:15:23.373Z,25.60
2018-11-28T09:17:51.765Z,24.30
2018-11-28T09:20:20.910Z,25.50
2018-11-28T09:22:49.321Z,24.23
2018-11-28T09:25:18.471Z,26.07
2018-11-28T09:27:46.913Z,24.63
2018-11-28T09:30:15.270Z,24.73
2018-11-28T09:32:44.394Z,25.33
2018-11-28T09:35:12.800Z,25.77
2018-11-28T09:37:45.540Z,25.47
2018-11-28T09:40:09.498Z,26.03
2018-11-28T09:42:38.628Z,26.83
2018-11-28T09:45:07.095Z,24.93
2018-11-28T09:47:35.468Z,25.20
2018-11-28T09:50:03.873Z,23.93
2018-11-28T09:52:32.268Z,25.83
2018-11-28T09:55:00.615Z,24.93
2018-11-28T09:57:28.996Z,26.23
2018-11-28T09:59:57.350Z,26.93
2018-11-28T10:02:25.717Z,25.90
2018-11-28T10:04:54.188Z,24.67
2018-11-28T10:07:22.578Z,25.67
2018-11-28T10:09:51.028Z,25.53
2018-11-28T10:12:19.815Z,25.67
2018-11-28T10:14:47.829Z,25.63
2018-11-28T10:17:16.944Z,25.70
2018-11-28T10:19:46.041Z,26.10
2018-11-28T10:22:14.399Z,26.00
2018-11-28T10:24:43.527Z,26.20
2018-11-28T10:27:11.943Z,24.73
2018-11-28T10:29:40.299Z,26.20
2018-11-28T10:32:09.417Z,26.60
2018-11-28T10:34:37.773Z,25.93
2018-11-28T10:37:06.133Z,27.20
2018-11-28T10:39:34.485Z,25.60
2018-11-28T10:42:02.887Z,26.73
2018-11-28T10:44:31.231Z,27.93
2018-11-28T10:46:59.580Z,27.57
2018-11-28T10:49:27.923Z,26.27
2018-11-28T10:51:56.275Z,25.40
2018-11-28T10:54:24.646Z,27.33
2018-11-28T10:56:53.098Z,25.63
2018-11-28T10:59:21.435Z,26.73
2018-11-28T11:01:49.855Z,26.37
2018-11-28T11:04:18.198Z,25.13
2018-11-28T11:06:46.531Z,26.57
2018-11-28T11:09:14.886Z,25.97
2018-11-28T11:11:43.254Z,25.10
2018-11-28T11:14:11.669Z,25.97
2018-11-28T11:16:40.046Z,25.90
2018-11-28T11:19:08.476Z,24.43
2018-11-28T11:21:37.601Z,25.47
2018-11-28T11:24:05.943Z,25.27
2018-11-28T11:26:35.071Z,25.80
2018-11-28T11:29:03.479Z,25.97
2018-11-28T11:31:31.911Z,25.37
2018-11-28T11:34:00.354Z,25.07
2018-11-28T11:36:28.705Z,25.20
2018-11-28T11:38:57.067Z,24.83
2018-11-28T11:41:25.438Z,25.00
2018-11-28T11:43:53.801Z,24.23
2018-11-28T11:46:22.149Z,25.07
2018-11-28T11:48:50.570Z,25.17
2018-11-28T11:51:19.726Z,25.20
2018-11-28T11:53:48.072Z,23.80
2018-11-28T11:56:16.444Z,26.03
2018-11-28T11:58:44.789Z,24.37
2018-11-28T12:01:13.158Z,25.13
2018-11-28T12:03:42.270Z,24.67
2018-11-28T12:06:10.634Z,24.90
2018-11-28T12:08:39.806Z,24.50
2018-11-28T12:11:08.295Z,24.73
2018-11-28T12:13:36.745Z,23.43
2018-11-28T12:16:05.121Z,23.40
2018-11-28T12:18:33.530Z,24.20
2018-11-28T12:21:01.877Z,25.70
2018-11-28T12:23:30.272Z,24.27
2018-11-28T12:25:58.670Z,24.33
2018-11-28T12:28:27.038Z,22.83
2018-11-28T12:30:55.395Z,22.33
2018-11-28T12:33:23.803Z,23.50
2018-11-28T12:35:52.849Z,23.70
2018-11-28T12:38:21.204Z,23.10
2018-11-28T12:40:49.563Z,22.20
2018-11-28T12:43:18.005Z,23.20
2018-11-28T12:45:46.337Z,22.03
2018-11-28T12:48:16.399Z,22.90
2018-11-28T12:50:44.760Z,22.57
2018-11-28T12:53:13.147Z,23.30
2018-11-28T12:55:41.559Z,23.83
2018-11-28T12:58:10.625Z,22.70
2018-11-28T13:00:38.976Z,22.50
2018-11-28T13:03:08.096Z,23.50
2018-11-28T13:05:36.440Z,21.67
2018-11-28T13:08:04.818Z,22.17
2018-11-28T13:10:33.181Z,22.73
2018-11-28T13:13:01.560Z,21.90
2018-11-28T13:15:30.023Z,21.57
2018-11-28T13:17:58.485Z,22.47
2018-11-28T13:20:26.852Z,21.03
2018-11-28T13:22:55.561Z,21.90
2018-11-28T13:25:24.004Z,23.87
2018-11-28T13:27:52.423Z,22.10
2018-11-28T13:30:20.799Z,20.97
2018-11-28T13:32:49.157Z,22.53
2018-11-28T13:35:17.543Z,20.17
2018-11-28T13:37:45.882Z,19.40
2018-11-28T13:40:14.265Z,19.43
2018-11-28T13:42:42.687Z,19.20
2018-11-28T13:45:11.033Z,19.60
2018-11-28T13:47:39.424Z,21.40
2018-11-28T13:50:08.561Z,19.87
2018-11-28T13:52:37.044Z,19.63
2018-11-28T13:57:34.329Z,19.07
2018-11-28T14:00:02.807Z,19.13
2018-11-28T14:02:32.263Z,20.03
2018-11-28T14:04:59.555Z,19.70
2018-11-28T14:07:28.028Z,20.43
2018-11-28T14:09:56.387Z,20.10
2018-11-28T14:12:24.797Z,19.40
2018-11-28T14:14:53.145Z,19.37
2018-11-28T14:17:21.587Z,19.70
2018-11-28T14:19:49.927Z,20.37
2018-11-28T14:22:18.303Z,19.63
2018-11-28T14:24:46.633Z,20.43
2018-11-28T14:27:15.173Z,20.40
2018-11-28T14:29:43.485Z,21.47
2018-11-28T14:32:11.880Z,20.57
2018-11-28T14:34:40.233Z,20.23
2018-11-28T14:37:08.711Z,21.53
2018-11-28T14:39:37.218Z,20.33
2018-11-28T14:42:05.542Z,20.90
2018-11-28T14:44:33.967Z,21.43
2018-11-28T14:47:02.512Z,20.50
2018-11-28T14:49:30.777Z,21.73
2018-11-28T14:51:59.136Z,23.00
2018-11-28T14:54:28.255Z,22.80
2018-11-28T14:56:56.634Z,22.40
2018-11-28T14:59:25.048Z,24.43
2018-11-28T15:01:53.413Z,23.30
2018-11-28T15:04:21.781Z,22.90
2018-11-28T15:06:50.146Z,22.97
2018-11-28T15:09:18.559Z,23.30
2018-11-28T15:11:46.922Z,23.93
2018-11-28T15:14:15.311Z,24.40
2018-11-28T15:16:43.714Z,25.13
2018-11-28T15:19:12.059Z,24.80
2018-11-28T15:21:40.432Z,23.93
2018-11-28T15:24:08.777Z,24.70
2018-11-28T15:26:37.319Z,24.20
2018-11-28T15:29:05.680Z,24.57
2018-11-28T15:31:34.013Z,23.13
2018-11-28T15:34:02.453Z,23.27
2018-11-28T15:36:30.813Z,22.80
2018-11-28T15:38:59.220Z,26.00
2018-11-28T15:41:27.589Z,25.37
2018-11-28T15:43:55.953Z,28.60
2018-11-28T15:46:24.318Z,27.40
2018-11-28T15:48:52.683Z,25.03
2018-11-28T15:51:21.816Z,24.90
2018-11-28T15:53:50.177Z,26.57
2018-11-28T15:56:18.538Z,25.13
2018-11-28T15:58:47.078Z,25.87
2018-11-28T16:01:15.440Z,23.73
2018-11-28T16:03:43.813Z,23.37
2018-11-28T16:06:12.174Z,24.23
2018-11-28T16:08:40.522Z,25.13
2018-11-28T16:11:08.901Z,22.30
2018-11-28T16:13:38.031Z,23.43
2018-11-28T16:16:06.441Z,23.83
2018-11-28T16:18:34.773Z,28.97
2018-11-28T16:21:03.149Z,25.07
2018-11-28T16:23:32.302Z,23.50
2018-11-28T16:26:00.675Z,22.57
2018-11-28T16:28:29.020Z,25.90
2018-11-28T16:30:57.419Z,24.77
2018-11-28T16:33:25.781Z,25.20
2018-11-28T16:35:54.182Z,24.57
2018-11-28T16:38:22.522Z,22.30
2018-11-28T16:40:50.943Z,23.17
2018-11-28T16:43:19.281Z,21.83
2018-11-28T16:45:47.645Z,21.50
2018-11-28T16:48:16.851Z,22.17
2018-11-28T16:50:45.374Z,20.77
2018-11-28T16:53:13.801Z,22.80
2018-11-28T16:55:42.226Z,23.27
2018-11-28T16:58:10.585Z,21.47
2018-11-28T17:00:38.963Z,20.77
2018-11-28T17:03:07.608Z,22.07
2018-11-28T17:05:35.987Z,22.10
2018-11-28T17:08:04.351Z,21.83
2018-11-28T17:10:32.851Z,21.40
2018-11-28T17:13:01.252Z,21.77
2018-11-28T17:15:29.636Z,20.77
2018-11-28T17:17:58.038Z,21.20
2018-11-28T17:20:26.413Z,20.63
2018-11-28T17:22:54.782Z,21.83
2018-11-28T17:25:23.157Z,20.60
2018-11-28T17:27:52.333Z,21.10
2018-11-28T17:30:20.733Z,21.33
2018-11-28T17:32:49.834Z,21.73
2018-11-28T17:35:18.237Z,21.13
2018-11-28T17:37:46.599Z,20.90
2018-11-28T17:40:15.800Z,20.77
2018-11-28T17:42:44.962Z,22.00
2018-11-28T17:45:13.343Z,21.00
2018-11-28T17:47:41.745Z,20.63
2018-11-28T17:50:10.192Z,21.03
2018-11-28T17:52:38.761Z,20.00
2018-11-28T17:55:07.162Z,20.77
2018-11-28T17:57:35.524Z,21.10
2018-11-28T18:00:03.876Z,22.93
2018-11-28T18:02:32.410Z,20.10
2018-11-28T18:05:00.919Z,21.03
2018-11-28T18:07:29.479Z,20.60
2018-11-28T18:09:58.100Z,21.17
2018-11-28T18:13:56.325Z,20.67
2018-11-28T18:16:29.480Z,21.23
2018-11-28T18:18:53.433Z,19.77
2018-11-28T18:21:21.893Z,21.97
2018-11-28T18:23:50.981Z,23.90
2018-11-28T18:26:19.412Z,22.60
2018-11-28T18:28:47.789Z,21.07
2018-11-28T18:31:16.252Z,21.37
2018-11-28T18:33:45.372Z,21.13
2018-11-28T18:36:13.765Z,20.50
2018-11-28T18:38:42.148Z,21.90
2018-11-28T18:41:10.525Z,20.47
2018-11-28T18:43:38.852Z,21.70
2018-11-28T18:46:08.022Z,21.87
2018-11-28T18:48:36.362Z,21.23
2018-11-28T18:51:04.739Z,19.90
2018-11-28T18:53:33.133Z,20.47
2018-11-28T18:56:01.491Z,20.50
2018-11-28T18:58:30.597Z,20.53
2018-11-28T19:00:58.952Z,19.47
2018-11-28T19:03:28.068Z,20.60
2018-11-28T19:05:57.204Z,19.13
2018-11-28T19:08:25.550Z,19.67
2018-11-28T19:10:53.937Z,21.90
2018-11-28T19:13:22.298Z,21.53
2018-11-28T19:15:50.715Z,22.47
2018-11-28T19:18:19.090Z,23.07
2018-11-28T19:20:47.443Z,21.60
2018-11-28T19:23:15.796Z,20.10
2018-11-28T19:25:49.772Z,20.53
2018-11-28T19:28:12.556Z,19.67
2018-11-28T19:30:41.688Z,20.63
2018-11-28T19:33:10.021Z,20.13
2018-11-28T19:35:39.157Z,21.40
2018-11-28T19:38:07.535Z,20.37
2018-11-28T19:40:35.916Z,21.27
2018-11-28T19:43:04.530Z,19.73
2018-11-28T19:45:32.726Z,20.80
2018-11-28T19:48:01.185Z,20.53
2018-11-28T19:50:29.628Z,20.57
2018-11-28T19:52:58.811Z,20.80
2018-11-28T19:55:27.184Z,20.77
2018-11-28T19:57:55.577Z,20.10
2018-11-28T20:00:24.128Z,21.93
2018-11-28T20:02:52.506Z,19.13
2018-11-28T20:05:21.094Z,20.13
2018-11-28T20:07:49.786Z,18.33
2018-11-28T20:10:18.138Z,19.47
2018-11-28T20:12:46.531Z,18.60
2018-11-28T20:15:14.916Z,19.67
2018-11-28T20:17:44.084Z,19.73
2018-11-28T20:20:12.450Z,17.07
2018-11-28T20:22:40.895Z,18.33
2018-11-28T20:25:09.251Z,17.63
2018-11-28T20:27:37.699Z,17.70
2018-11-28T20:30:06.080Z,18.97
2018-11-28T20:32:34.442Z,18.70
2018-11-28T20:35:03.189Z,18.53
2018-11-28T20:37:31.564Z,18.33
2018-11-28T20:39:59.947Z,18.70
2018-11-28T20:42:28.306Z,16.83
2018-11-28T20:44:56.842Z,18.53
2018-11-28T20:47:25.212Z,17.73
2018-11-28T20:49:54.350Z,17.57
2018-11-28T20:52:22.700Z,17.43
2018-11-28T20:54:51.139Z,19.50
2018-11-28T20:57:19.499Z,15.87
2018-11-28T20:59:47.838Z,17.67
2018-11-28T21:02:16.213Z,18.57
2018-11-28T21:04:45.344Z,18.93
2018-11-28T21:07:13.704Z,17.90
2018-11-28T21:09:42.094Z,18.63
2018-11-28T21:12:10.464Z,17.23
2018-11-28T21:14:38.802Z,18.40
2018-11-28T21:17:07.948Z,17.87
2018-11-28T21:19:36.332Z,17.67
2018-11-28T21:22:04.771Z,18.87
2018-11-28T21:24:33.904Z,17.37
2018-11-28T21:27:02.237Z,18.13
2018-11-28T21:29:31.393Z,17.43
2018-11-28T21:31:59.751Z,18.27
2018-11-28T21:34:28.186Z,17.77
2018-11-28T21:36:56.534Z,18.07
2018-11-28T21:39:25.204Z,17.87
2018-11-28T21:41:53.740Z,16.93
2018-11-28T21:44:23.036Z,17.67
2018-11-28T21:46:50.966Z,18.33
2018-11-28T21:49:19.512Z,18.57
2018-11-28T21:51:47.884Z,17.93
2018-11-28T21:54:17.073Z,17.07
2018-11-28T21:56:45.476Z,17.23
2018-11-28T21:59:13.838Z,18.20
2018-11-28T22:01:42.389Z,16.87
2018-11-28T22:04:10.834Z,17.70
2018-11-28T22:06:39.979Z,17.33
2018-11-28T22:09:09.223Z,16.93
2018-11-28T22:11:37.631Z,17.03
2018-11-28T22:14:05.993Z,17.90
2018-11-28T22:16:34.503Z,16.63
2018-11-28T22:19:02.907Z,16.73
2018-11-28T22:21:31.276Z,17.60
2018-11-28T22:23:59.602Z,17.93
2018-11-28T22:26:27.990Z,17.93
2018-11-28T22:28:56.334Z,17.33
2018-11-28T22:31:25.474Z,18.00
2018-11-28T22:33:53.893Z,17.40
2018-11-28T22:36:22.252Z,16.87
2018-11-28T22:38:50.583Z,18.60
2018-11-28T22:41:18.974Z,17.57
2018-11-28T22:43:47.654Z,17.47
2018-11-28T22:46:16.906Z,18.50
2018-11-28T22:48:45.300Z,17.97
2018-11-28T22:51:13.762Z,17.13
2018-11-28T22:53:42.118Z,17.50
2018-11-28T22:56:10.470Z,17.23
2018-11-28T22:58:39.698Z,18.03
2018-11-28T23:01:08.044Z,17.63
2018-11-28T23:03:36.384Z,17.43
2018-11-28T23:06:04.758Z,17.30
2018-11-28T23:08:33.227Z,18.07
2018-11-28T23:11:01.558Z,19.53
2018-11-28T23:13:30.890Z,19.10
2018-11-28T23:15:59.734Z,18.60
2018-11-28T23:18:28.166Z,18.53
2018-11-28T23:20:56.492Z,18.43
2018-11-28T23:23:24.922Z,18.60
2018-11-28T23:25:53.313Z,19.00
2018-11-28T23:28:21.627Z,18.43
2018-11-28T23:30:50.750Z,18.07
2018-11-28T23:33:20.080Z,17.13
2018-11-28T23:35:48.422Z,18.80
2018-11-28T23:38:17.568Z,18.33
2018-11-28T23:40:45.929Z,20.03
2018-11-28T23:43:14.418Z,17.93
2018-11-28T23:45:42.823Z,19.00
2018-11-28T23:48:11.210Z,17.67
2018-11-28T23:50:39.578Z,18.13
2018-11-28T23:53:07.942Z,19.00
2018-11-28T23:55:36.300Z,17.97
2018-11-28T23:58:04.638Z,17.40
